KSCX

Scott Municipal Airport

Oneida, Tennessee, USA
METAR KSCX 280035Z AUTO 00000KT 10SM SCT095 24/21 A2996 RMK A01
Observed Flight Rules
May-28 @ 00:35 UTC (35 minutes ago) Visual Flight Rules
Visibility Clouds
10 miles
  • Scattered at 9,500' AGL
Temperatures Readings
Current 24°C / 75°F
Dewpoint 21°C / 70°F
Humidity 83%
Altimeter 29.96" Hg
Pressure 1015 hPa
Elevation 471
METAR KSCX 280035Z AUTO 00000KT 10SM SCT095 24/21 A2996 RMK A01
Observed Flight Rules
May-28 @ 00:35 UTC
(35 minutes ago)
VFR
Clouds
  • Scattered at 9,500' AGL
Temperature Dewpoint
24°C / 75°F 21°C / 70°F
Humidity Altimeter Pressure
83% 29.96" Hg 1015 hPa